EST,Max TemperatureF,Mean TemperatureF,Min TemperatureF,Max Dew PointF,MeanDew PointF,Min DewpointF,Max Humidity, Mean Humidity, Min Humidity, Max Sea Level PressureIn, Mean Sea Level PressureIn, Min Sea Level PressureIn, Max VisibilityMiles, Mean VisibilityMiles, Min VisibilityMiles, Max Wind SpeedMPH, Mean Wind SpeedMPH, Max Gust SpeedMPH,PrecipitationIn, CloudCover, Events, WindDirDegrees
2012-12-1,57,44,31,46,36,30,97,88,67,30.27,30.14,29.91,10,5,2,22,8,30,0.00,7,,143
2012-12-2,56,50,43,53,48,40,95,88,67,30.11,29.95,29.87,10,7,3,20,11,25,0.00,8,Rain,236
2012-12-3,63,50,38,58,49,37,98,91,77,30.13,30.01,29.83,10,5,1,22,6,28,0.00,7,,162
2012-12-4,64,51,38,56,42,30,88,70,57,30.09,29.93,29.82,10,10,7,18,13,26,0.00,4,Rain,248
2012-12-5,39,31,23,28,21,18,91,67,55,30.39,30.32,30.11,10,10,10,16,10,24,0.00,4,,328
2012-12-6,39,31,23,30,26,21,89,75,62,30.35,30.13,29.92,10,10,10,13,5,20,0.00,3,,162
2012-12-7,44,41,38,40,36,30,96,86,71,29.95,29.92,29.89,10,6,2,12,5,,0.00,8,Rain,162
2012-12-8,38,35,32,34,32,24,98,89,70,30.18,29.98,29.87,10,8,1,13,6,18,0.00,8,Rain-Snow,3
2012-12-9,35,32,30,34,29,26,99,86,76,30.19,30.01,29.65,10,8,2,17,4,22,0.00,7,Snow,65
2012-12-10,35,30,26,35,28,19,99,87,70,29.87,29.68,29.57,10,8,0,14,5,18,0.00,8,Fog-Snow,293
2012-12-11,34,28,22,28,21,18,87,73,57,30.08,29.98,29.87,10,10,5,17,6,24,0.00,6,Snow,228
2012-12-12,43,36,30,28,25,22,80,71,49,30.32,30.23,30.08,10,10,7,15,9,20,0.00,4,Snow,212
2012-12-13,46,38,29,25,23,19,78,59,34,30.32,30.23,30.10,10,10,10,15,9,23,0.00,0,,192
2012-12-14,43,36,29,31,28,23,96,76,56,30.24,30.19,30.12,10,9,4,10,5,17,0.00,0,,204
2012-12-15,41,36,30,39,35,30,99,92,76,30.19,29.98,29.67,10,4,1,18,7,26,0.00,6,Rain,113
2012-12-16,49,45,41,48,44,40,97,95,91,29.66,29.60,29.56,10,7,2,12,7,20,0.00,8,Rain,197
2012-12-17,42,36,31,40,35,30,96,84,66,29.71,29.66,29.61,10,9,5,10,6,17,0.00,8,,238
2012-12-18,41,34,29,34,31,28,96,88,63,29.75,29.70,29.63,10,8,3,12,5,,0.00,5,Snow,278
2012-12-19,43,36,28,35,31,27,96,87,63,30.12,29.97,29.74,10,7,1,9,2,,0.00,4,,254
2012-12-20,44,36,27,43,36,27,96,92,80,30.08,29.56,29.12,10,6,2,24,10,39,0.00,7,Rain-Snow,116
2012-12-21,39,34,28,35,28,22,99,87,72,29.84,29.45,29.15,10,4,0,26,13,38,0.00,8,Rain-Snow,310
2012-12-22,31,29,27,26,23,21,84,74,67,30.02,29.96,29.84,10,10,7,30,15,40,0.00,7,,269
2012-12-23,31,26,22,26,21,18,90,76,62,30.03,29.93,29.85,10,10,7,14,7,17,0.00,6,,276
2012-12-24,30,24,20,27,21,15,92,78,67,30.03,29.96,29.87,10,10,5,10,3,,0.00,7,Snow,16
2012-12-25,30,28,26,26,22,18,88,76,59,30.33,30.22,29.99,10,10,10,12,7,,0.00,6,,349
2012-12-26,30,29,28,28,23,19,93,77,65,30.30,30.06,29.91,10,8,1,18,10,25,0.00,8,Snow,36
2012-12-27,30,20,9,29,19,7,94,85,65,30.14,30.05,29.90,10,7,2,22,11,25,0.00,5,Snow,344
2012-12-28,29,15,3,22,12,-1,93,84,69,30.15,30.08,29.97,10,9,7,4,0,,0.00,5,Snow,2
2012-12-29,29,23,17,26,22,13,94,84,69,30.02,29.89,29.82,10,8,2,15,4,20,0.00,7,Snow,323
2012-12-30,29,23,17,23,21,14,93,81,71,30.24,30.16,30.02,10,9,5,16,8,22,0.00,7,Snow,238
2012-12-31,34,28,22,28,21,15,82,73,60,30.10,29.95,29.85,10,9,7,16,11,23,0.00,5,,237